KLM5891 EHAM-DGAA
Flight info
| Callsign | KLM5891 |
|---|---|
| Flight time | N/A |
| Altitude | 23000 |
| Route | WOODY N872 CIV/N0499F330 DCT KOVIN DCT DUCRA DCT RESMI DCT DEKOD DCT DISAK DCT DIRMO DCT ETAMO DCT ADEKA DCT MOKDI/N0494F350 DCT MEN DCT BADAM DCT KANIG DCT KENAS DCT POS DCT WITAZ DCT XESPA DCT GENIO DCT MOGIL UB31 ZEM/N0496F340 UZ333 KAHIL UB726 GHA/N0499F350 UA615 TMS UA604 EREBO/N0511F360 DCT MIGNI DCT ABALA DCT IPUTA DCT TATAT DCT KILMO DCT LITEX LITEX1B |
| Aircraft | B77W/H-SDE1E2E3FGHIJ2J3J4J5M1RWXY/LB1D1 |
Departure
| Time | N/A |
|---|---|
| Airport | Amsterdam Airport Schiphol (EHAM) |
Arrival
| Time | 2026-04-25 13:16 |
|---|---|
| Airport | Kotoka International Airport (DGAA) |
| Time | Latitude | Longitude | Altitude | Speed | Heading |
|---|---|---|---|---|---|
| 2026-04-25 13:04 | 6.42869 | -0.08512 | 13378 ft | 403 kts | 172° |
| 2026-04-25 13:04 | 6.40070 | -0.08237 | 12784 ft | 400 kts | 172° |
| 2026-04-25 13:05 | 6.37308 | -0.07966 | 12209 ft | 396 kts | 172° |
| 2026-04-25 13:05 | 6.34551 | -0.07694 | 11630 ft | 391 kts | 172° |
| 2026-04-25 13:05 | 6.31858 | -0.07429 | 11066 ft | 386 kts | 172° |
| 2026-04-25 13:05 | 6.29184 | -0.07166 | 10684 ft | 376 kts | 171° |
| 2026-04-25 13:06 | 6.26631 | -0.06915 | 10599 ft | 359 kts | 171° |
| 2026-04-25 13:06 | 6.24168 | -0.06674 | 10491 ft | 343 kts | 171° |
| 2026-04-25 13:06 | 6.21851 | -0.06445 | 10354 ft | 330 kts | 171° |
| 2026-04-25 13:06 | 6.19597 | -0.06222 | 10206 ft | 318 kts | 171° |
| 2026-04-25 13:07 | 6.17417 | -0.06007 | 10063 ft | 307 kts | 171° |
| 2026-04-25 13:07 | 6.15308 | -0.05798 | 9923 ft | 296 kts | 171° |
| 2026-04-25 13:07 | 6.13290 | -0.05598 | 9681 ft | 291 kts | 170° |
| 2026-04-25 13:07 | 6.11236 | -0.05393 | 9271 ft | 293 kts | 170° |
| 2026-04-25 13:08 | 6.09212 | -0.05192 | 8881 ft | 294 kts | 171° |
| 2026-04-25 13:08 | 6.07171 | -0.04991 | 8500 ft | 293 kts | 171° |
| 2026-04-25 13:08 | 6.05121 | -0.04789 | 8134 ft | 291 kts | 171° |
| 2026-04-25 13:08 | 6.03108 | -0.04590 | 7774 ft | 288 kts | 172° |
| 2026-04-25 13:09 | 6.01127 | -0.04395 | 7420 ft | 286 kts | 173° |
| 2026-04-25 13:09 | 5.99133 | -0.04198 | 7057 ft | 284 kts | 173° |
| 2026-04-25 13:09 | 5.97164 | -0.04004 | 6714 ft | 281 kts | 173° |
| 2026-04-25 13:09 | 5.95231 | -0.03813 | 6369 ft | 278 kts | 174° |
| 2026-04-25 13:10 | 5.93295 | -0.03655 | 6009 ft | 276 kts | 182° |
| 2026-04-25 13:10 | 5.91420 | -0.04026 | 5678 ft | 271 kts | 200° |
| 2026-04-25 13:10 | 5.89708 | -0.04744 | 5413 ft | 265 kts | 204° |
| 2026-04-25 13:10 | 5.88010 | -0.05504 | 5146 ft | 261 kts | 204° |
| 2026-04-25 13:11 | 5.86360 | -0.06230 | 4870 ft | 259 kts | 204° |
| 2026-04-25 13:11 | 5.84694 | -0.06941 | 4587 ft | 258 kts | 203° |
| 2026-04-25 13:11 | 5.83022 | -0.07637 | 4306 ft | 257 kts | 203° |
| 2026-04-25 13:11 | 5.81362 | -0.08318 | 4031 ft | 255 kts | 202° |
| 2026-04-25 13:12 | 5.79766 | -0.08965 | 3738 ft | 243 kts | 202° |
| 2026-04-25 13:12 | 5.78212 | -0.09573 | 3457 ft | 225 kts | 201° |
| 2026-04-25 13:12 | 5.76771 | -0.10128 | 3206 ft | 225 kts | 202° |
| 2026-04-25 13:12 | 5.75792 | -0.10518 | 3022 ft | 224 kts | 202° |
| 2026-04-25 13:13 | 5.73876 | -0.11295 | 2661 ft | 223 kts | 202° |
| 2026-04-25 13:13 | 5.72452 | -0.11873 | 2383 ft | 210 kts | 202° |
| 2026-04-25 13:13 | 5.71128 | -0.12405 | 2137 ft | 194 kts | 202° |
| 2026-04-25 13:13 | 5.69909 | -0.12896 | 1905 ft | 181 kts | 203° |
| 2026-04-25 13:14 | 5.68740 | -0.13372 | 1680 ft | 177 kts | 203° |
| 2026-04-25 13:14 | 5.67637 | -0.13822 | 1467 ft | 162 kts | 203° |
| 2026-04-25 13:14 | 5.66646 | -0.14225 | 1265 ft | 149 kts | 203° |
| 2026-04-25 13:14 | 5.65696 | -0.14612 | 1070 ft | 144 kts | 202° |
| 2026-04-25 13:15 | 5.64775 | -0.14989 | 872 ft | 143 kts | 202° |
| 2026-04-25 13:15 | 5.63838 | -0.15367 | 691 ft | 143 kts | 201° |
| 2026-04-25 13:15 | 5.62917 | -0.15737 | 518 ft | 142 kts | 201° |
| 2026-04-25 13:15 | 5.61994 | -0.16114 | 318 ft | 141 kts | 202° |
| 2026-04-25 13:16 | 5.61108 | -0.16478 | 219 ft | 127 kts | 202° |
| 2026-04-25 13:16 | 5.60422 | -0.16763 | 218 ft | 82 kts | 202° |
| 2026-04-25 13:16 | 5.60048 | -0.16917 | 218 ft | 31 kts | 204° |
| 2026-04-25 13:16 | 5.59941 | -0.16991 | 218 ft | 14 kts | 223° |
| 2026-04-25 13:17 | 5.59875 | -0.17064 | 218 ft | 13 kts | 231° |
| 2026-04-25 13:17 | 5.59828 | -0.17124 | 218 ft | 8 kts | 237° |
| 2026-04-25 13:17 | 5.59829 | -0.17184 | 218 ft | 9 kts | 309° |
| 2026-04-25 13:17 | 5.59887 | -0.17191 | 218 ft | 9 kts | 18° |
| 2026-04-25 13:18 | 5.59959 | -0.17163 | 218 ft | 11 kts | 22° |
| 2026-04-25 13:18 | 5.60028 | -0.17134 | 218 ft | 9 kts | 23° |
| 2026-04-25 13:18 | 5.60039 | -0.17129 | 218 ft | 3 kts | 18° |
| 2026-04-25 13:18 | 5.60069 | -0.17144 | 218 ft | 6 kts | 294° |
| 2026-04-25 13:19 | 5.60087 | -0.17185 | 218 ft | 6 kts | 293° |
| 2026-04-25 13:19 | 5.60097 | -0.17208 | 218 ft | 1 kts | 292° |